sensor_id;sensor_type;location;lat;lon;timestamp;temperature;humidity
9564;DHT22;4820;50.870;4.702;2023-07-31T00:00:11;17.20;99.90
9564;DHT22;4820;50.870;4.702;2023-07-31T00:02:38;17.30;99.90
9564;DHT22;4820;50.870;4.702;2023-07-31T00:05:04;17.30;99.90
9564;DHT22;4820;50.870;4.702;2023-07-31T00:07:29;17.30;99.90
9564;DHT22;4820;50.870;4.702;2023-07-31T00:09:55;17.30;99.90
9564;DHT22;4820;50.870;4.702;2023-07-31T00:12:22;17.30;99.90
9564;DHT22;4820;50.870;4.702;2023-07-31T00:14:48;17.30;99.90
9564;DHT22;4820;50.870;4.702;2023-07-31T00:17:14;17.40;99.90
9564;DHT22;4820;50.870;4.702;2023-07-31T00:19:39;17.30;99.90
9564;DHT22;4820;50.870;4.702;2023-07-31T00:22:05;17.40;99.90
9564;DHT22;4820;50.870;4.702;2023-07-31T00:24:31;17.40;99.90
9564;DHT22;4820;50.870;4.702;2023-07-31T00:26:56;17.40;99.90
9564;DHT22;4820;50.870;4.702;2023-07-31T00:29:22;17.40;99.90
9564;DHT22;4820;50.870;4.702;2023-07-31T00:31:48;17.40;99.90
9564;DHT22;4820;50.870;4.702;2023-07-31T00:34:13;17.40;99.90
9564;DHT22;4820;50.870;4.702;2023-07-31T00:36:39;17.40;99.90
9564;DHT22;4820;50.870;4.702;2023-07-31T00:39:05;17.50;99.90
9564;DHT22;4820;50.870;4.702;2023-07-31T00:41:31;17.50;99.90
9564;DHT22;4820;50.870;4.702;2023-07-31T00:43:59;17.50;99.90
9564;DHT22;4820;50.870;4.702;2023-07-31T00:46:24;17.50;99.90
9564;DHT22;4820;50.870;4.702;2023-07-31T00:48:50;17.50;99.90
9564;DHT22;4820;50.870;4.702;2023-07-31T00:51:16;17.60;99.90
9564;DHT22;4820;50.870;4.702;2023-07-31T00:53:42;17.50;99.90
9564;DHT22;4820;50.870;4.702;2023-07-31T00:56:10;17.50;99.90
9564;DHT22;4820;50.870;4.702;2023-07-31T00:58:36;17.60;99.90
9564;DHT22;4820;50.870;4.702;2023-07-31T01:01:02;17.60;99.90
9564;DHT22;4820;50.870;4.702;2023-07-31T01:03:27;17.60;99.90
9564;DHT22;4820;50.870;4.702;2023-07-31T01:06:17;17.60;99.90
9564;DHT22;4820;50.870;4.702;2023-07-31T01:09:08;17.60;99.90
9564;DHT22;4820;50.870;4.702;2023-07-31T01:11:53;17.60;99.90
9564;DHT22;4820;50.870;4.702;2023-07-31T01:14:20;17.60;99.90
9564;DHT22;4820;50.870;4.702;2023-07-31T01:16:45;17.60;99.90
9564;DHT22;4820;50.870;4.702;2023-07-31T01:19:13;17.60;99.90
9564;DHT22;4820;50.870;4.702;2023-07-31T01:26:58;17.60;99.90
9564;DHT22;4820;50.870;4.702;2023-07-31T01:29:38;17.70;99.90
9564;DHT22;4820;50.870;4.702;2023-07-31T01:32:06;17.60;99.90
9564;DHT22;4820;50.870;4.702;2023-07-31T01:34:33;17.60;99.90
9564;DHT22;4820;50.870;4.702;2023-07-31T01:36:59;17.60;99.90
9564;DHT22;4820;50.870;4.702;2023-07-31T01:39:25;17.60;99.90
9564;DHT22;4820;50.870;4.702;2023-07-31T01:41:51;17.60;99.90
9564;DHT22;4820;50.870;4.702;2023-07-31T01:44:17;17.60;99.90
9564;DHT22;4820;50.870;4.702;2023-07-31T01:46:42;17.60;99.90
9564;DHT22;4820;50.870;4.702;2023-07-31T01:49:08;17.60;99.90
9564;DHT22;4820;50.870;4.702;2023-07-31T01:51:33;17.70;99.90
9564;DHT22;4820;50.870;4.702;2023-07-31T01:54:02;17.60;99.90
9564;DHT22;4820;50.870;4.702;2023-07-31T01:56:28;17.60;99.90
9564;DHT22;4820;50.870;4.702;2023-07-31T01:58:54;17.60;99.90
9564;DHT22;4820;50.870;4.702;2023-07-31T02:01:19;17.60;99.90
9564;DHT22;4820;50.870;4.702;2023-07-31T02:03:45;17.60;99.90
9564;DHT22;4820;50.870;4.702;2023-07-31T02:06:11;17.60;99.90
9564;DHT22;4820;50.870;4.702;2023-07-31T02:08:37;17.60;99.90
9564;DHT22;4820;50.870;4.702;2023-07-31T02:11:03;17.60;99.90
9564;DHT22;4820;50.870;4.702;2023-07-31T02:13:28;17.60;99.90
9564;DHT22;4820;50.870;4.702;2023-07-31T02:15:54;17.60;99.90
9564;DHT22;4820;50.870;4.702;2023-07-31T02:18:20;17.60;99.90
9564;DHT22;4820;50.870;4.702;2023-07-31T02:20:50;17.60;99.90
9564;DHT22;4820;50.870;4.702;2023-07-31T02:23:17;17.60;99.90
9564;DHT22;4820;50.870;4.702;2023-07-31T02:25:43;17.60;99.90
9564;DHT22;4820;50.870;4.702;2023-07-31T02:28:09;17.60;99.90
9564;DHT22;4820;50.870;4.702;2023-07-31T02:30:34;17.60;99.90
9564;DHT22;4820;50.870;4.702;2023-07-31T02:33:00;17.60;99.90
9564;DHT22;4820;50.870;4.702;2023-07-31T02:35:26;17.60;99.90
9564;DHT22;4820;50.870;4.702;2023-07-31T02:37:51;17.60;99.90
9564;DHT22;4820;50.870;4.702;2023-07-31T02:40:17;17.60;99.90
9564;DHT22;4820;50.870;4.702;2023-07-31T02:42:43;17.60;99.90
9564;DHT22;4820;50.870;4.702;2023-07-31T02:45:08;17.60;99.90
9564;DHT22;4820;50.870;4.702;2023-07-31T02:47:34;17.60;99.90
9564;DHT22;4820;50.870;4.702;2023-07-31T02:50:01;17.60;99.90
9564;DHT22;4820;50.870;4.702;2023-07-31T02:52:27;17.60;99.90
9564;DHT22;4820;50.870;4.702;2023-07-31T02:54:53;17.60;99.90
9564;DHT22;4820;50.870;4.702;2023-07-31T02:57:20;17.60;99.90
9564;DHT22;4820;50.870;4.702;2023-07-31T02:59:45;17.70;99.90
9564;DHT22;4820;50.870;4.702;2023-07-31T03:02:12;17.70;99.90
9564;DHT22;4820;50.870;4.702;2023-07-31T03:04:38;17.70;99.90
9564;DHT22;4820;50.870;4.702;2023-07-31T03:07:04;17.70;99.90
9564;DHT22;4820;50.870;4.702;2023-07-31T03:09:30;17.70;99.90
9564;DHT22;4820;50.870;4.702;2023-07-31T03:11:57;17.70;99.90
9564;DHT22;4820;50.870;4.702;2023-07-31T03:14:24;17.70;99.90
9564;DHT22;4820;50.870;4.702;2023-07-31T03:16:52;17.70;99.90
9564;DHT22;4820;50.870;4.702;2023-07-31T03:19:17;17.70;99.90
9564;DHT22;4820;50.870;4.702;2023-07-31T03:21:43;17.70;99.90
9564;DHT22;4820;50.870;4.702;2023-07-31T03:24:09;17.70;99.90
9564;DHT22;4820;50.870;4.702;2023-07-31T03:26:35;17.70;99.90
9564;DHT22;4820;50.870;4.702;2023-07-31T03:29:02;17.60;99.90
9564;DHT22;4820;50.870;4.702;2023-07-31T03:31:28;17.60;99.90
9564;DHT22;4820;50.870;4.702;2023-07-31T03:33:54;17.60;99.90
9564;DHT22;4820;50.870;4.702;2023-07-31T03:36:20;17.60;99.90
9564;DHT22;4820;50.870;4.702;2023-07-31T03:38:46;17.60;99.90
9564;DHT22;4820;50.870;4.702;2023-07-31T03:41:12;17.70;99.90
9564;DHT22;4820;50.870;4.702;2023-07-31T03:43:37;17.60;99.90
9564;DHT22;4820;50.870;4.702;2023-07-31T03:46:03;17.60;99.90
9564;DHT22;4820;50.870;4.702;2023-07-31T03:48:29;17.60;99.90
9564;DHT22;4820;50.870;4.702;2023-07-31T03:50:55;17.60;99.90
9564;DHT22;4820;50.870;4.702;2023-07-31T03:53:21;17.60;99.90
9564;DHT22;4820;50.870;4.702;2023-07-31T03:55:47;17.60;99.90
9564;DHT22;4820;50.870;4.702;2023-07-31T03:58:13;17.60;99.90
9564;DHT22;4820;50.870;4.702;2023-07-31T04:00:40;17.60;99.90
9564;DHT22;4820;50.870;4.702;2023-07-31T04:03:06;17.50;99.90
9564;DHT22;4820;50.870;4.702;2023-07-31T04:05:32;17.50;99.90
9564;DHT22;4820;50.870;4.702;2023-07-31T04:07:58;17.50;99.90
9564;DHT22;4820;50.870;4.702;2023-07-31T04:10:24;17.50;99.90
9564;DHT22;4820;50.870;4.702;2023-07-31T04:12:50;17.50;99.90
9564;DHT22;4820;50.870;4.702;2023-07-31T04:15:15;17.50;99.90
9564;DHT22;4820;50.870;4.702;2023-07-31T04:17:41;17.50;99.90
9564;DHT22;4820;50.870;4.702;2023-07-31T04:20:07;17.50;99.90
9564;DHT22;4820;50.870;4.702;2023-07-31T04:22:33;17.50;99.90
9564;DHT22;4820;50.870;4.702;2023-07-31T04:24:59;17.40;99.90
9564;DHT22;4820;50.870;4.702;2023-07-31T04:27:25;17.40;99.90
9564;DHT22;4820;50.870;4.702;2023-07-31T04:29:50;17.40;99.90
9564;DHT22;4820;50.870;4.702;2023-07-31T04:32:16;17.30;99.90
9564;DHT22;4820;50.870;4.702;2023-07-31T04:34:42;17.30;99.90
9564;DHT22;4820;50.870;4.702;2023-07-31T04:37:08;17.30;99.90
9564;DHT22;4820;50.870;4.702;2023-07-31T04:39:35;17.30;99.90
9564;DHT22;4820;50.870;4.702;2023-07-31T04:42:02;17.30;99.90
9564;DHT22;4820;50.870;4.702;2023-07-31T04:44:27;17.30;99.90
9564;DHT22;4820;50.870;4.702;2023-07-31T04:46:53;17.30;99.90
9564;DHT22;4820;50.870;4.702;2023-07-31T04:49:19;17.30;99.90
9564;DHT22;4820;50.870;4.702;2023-07-31T04:51:45;17.30;99.90
9564;DHT22;4820;50.870;4.702;2023-07-31T04:54:10;17.30;99.90
9564;DHT22;4820;50.870;4.702;2023-07-31T04:56:38;17.30;99.90
9564;DHT22;4820;50.870;4.702;2023-07-31T04:59:03;17.40;99.90
9564;DHT22;4820;50.870;4.702;2023-07-31T05:01:29;17.40;99.90
9564;DHT22;4820;50.870;4.702;2023-07-31T05:03:55;17.40;99.90
9564;DHT22;4820;50.870;4.702;2023-07-31T05:06:20;17.40;99.90
9564;DHT22;4820;50.870;4.702;2023-07-31T05:08:46;17.30;99.90
9564;DHT22;4820;50.870;4.702;2023-07-31T05:11:12;17.30;99.90
9564;DHT22;4820;50.870;4.702;2023-07-31T05:13:37;17.30;99.90
9564;DHT22;4820;50.870;4.702;2023-07-31T05:16:03;17.30;99.90
9564;DHT22;4820;50.870;4.702;2023-07-31T05:18:29;17.30;99.90
9564;DHT22;4820;50.870;4.702;2023-07-31T05:20:55;17.30;99.90
9564;DHT22;4820;50.870;4.702;2023-07-31T05:23:22;17.30;99.90
9564;DHT22;4820;50.870;4.702;2023-07-31T05:25:47;17.20;99.90
9564;DHT22;4820;50.870;4.702;2023-07-31T05:28:13;17.20;99.90
9564;DHT22;4820;50.870;4.702;2023-07-31T05:30:39;17.20;99.90
9564;DHT22;4820;50.870;4.702;2023-07-31T05:33:04;17.10;99.90
9564;DHT22;4820;50.870;4.702;2023-07-31T05:35:30;17.10;99.90
9564;DHT22;4820;50.870;4.702;2023-07-31T05:37:56;17.00;99.90
9564;DHT22;4820;50.870;4.702;2023-07-31T05:40:21;17.00;99.90
9564;DHT22;4820;50.870;4.702;2023-07-31T05:42:47;16.90;99.90
9564;DHT22;4820;50.870;4.702;2023-07-31T05:45:13;16.90;99.90
9564;DHT22;4820;50.870;4.702;2023-07-31T05:47:39;16.90;99.90
9564;DHT22;4820;50.870;4.702;2023-07-31T05:50:05;16.80;99.90
9564;DHT22;4820;50.870;4.702;2023-07-31T05:52:31;16.80;99.90
9564;DHT22;4820;50.870;4.702;2023-07-31T05:54:57;16.80;99.90
9564;DHT22;4820;50.870;4.702;2023-07-31T05:57:22;16.70;99.90
9564;DHT22;4820;50.870;4.702;2023-07-31T05:59:48;16.70;99.90
9564;DHT22;4820;50.870;4.702;2023-07-31T06:02:14;16.70;99.90
9564;DHT22;4820;50.870;4.702;2023-07-31T06:04:40;16.70;99.90
9564;DHT22;4820;50.870;4.702;2023-07-31T06:07:05;16.70;99.90
9564;DHT22;4820;50.870;4.702;2023-07-31T06:09:31;16.70;99.90
9564;DHT22;4820;50.870;4.702;2023-07-31T06:11:57;16.70;99.90
9564;DHT22;4820;50.870;4.702;2023-07-31T06:14:23;16.70;99.90
9564;DHT22;4820;50.870;4.702;2023-07-31T06:16:48;16.70;99.90
9564;DHT22;4820;50.870;4.702;2023-07-31T06:19:14;16.70;99.90
9564;DHT22;4820;50.870;4.702;2023-07-31T06:21:39;16.70;99.90
9564;DHT22;4820;50.870;4.702;2023-07-31T06:24:07;16.70;99.90
9564;DHT22;4820;50.870;4.702;2023-07-31T06:26:33;16.70;99.90
9564;DHT22;4820;50.870;4.702;2023-07-31T06:28:59;16.70;99.90
9564;DHT22;4820;50.870;4.702;2023-07-31T06:31:24;16.80;99.90
9564;DHT22;4820;50.870;4.702;2023-07-31T06:33:51;16.80;99.90
9564;DHT22;4820;50.870;4.702;2023-07-31T06:36:17;16.80;99.90
9564;DHT22;4820;50.870;4.702;2023-07-31T06:38:43;16.90;99.90
9564;DHT22;4820;50.870;4.702;2023-07-31T06:41:09;16.90;99.90
9564;DHT22;4820;50.870;4.702;2023-07-31T06:43:36;16.90;99.90
9564;DHT22;4820;50.870;4.702;2023-07-31T06:46:06;16.90;99.90
9564;DHT22;4820;50.870;4.702;2023-07-31T06:48:32;17.00;99.90
9564;DHT22;4820;50.870;4.702;2023-07-31T06:50:58;17.00;99.90
9564;DHT22;4820;50.870;4.702;2023-07-31T06:53:24;17.00;99.90
9564;DHT22;4820;50.870;4.702;2023-07-31T06:55:50;17.00;99.90
9564;DHT22;4820;50.870;4.702;2023-07-31T06:58:17;17.00;99.90
9564;DHT22;4820;50.870;4.702;2023-07-31T07:00:43;17.00;99.90
9564;DHT22;4820;50.870;4.702;2023-07-31T07:03:09;17.10;99.90
9564;DHT22;4820;50.870;4.702;2023-07-31T07:05:35;17.10;99.90
9564;DHT22;4820;50.870;4.702;2023-07-31T07:08:01;17.20;99.90
9564;DHT22;4820;50.870;4.702;2023-07-31T07:10:27;17.20;99.90
9564;DHT22;4820;50.870;4.702;2023-07-31T07:12:53;17.30;99.90
9564;DHT22;4820;50.870;4.702;2023-07-31T07:15:18;17.30;99.90
9564;DHT22;4820;50.870;4.702;2023-07-31T07:17:45;17.40;99.90
9564;DHT22;4820;50.870;4.702;2023-07-31T07:20:12;17.50;99.90
9564;DHT22;4820;50.870;4.702;2023-07-31T07:22:38;17.50;99.90
9564;DHT22;4820;50.870;4.702;2023-07-31T07:25:04;17.50;99.90
9564;DHT22;4820;50.870;4.702;2023-07-31T07:27:30;17.60;99.90
9564;DHT22;4820;50.870;4.702;2023-07-31T07:29:56;17.60;99.90
9564;DHT22;4820;50.870;4.702;2023-07-31T07:32:21;17.80;99.90
9564;DHT22;4820;50.870;4.702;2023-07-31T07:34:48;17.80;99.90
9564;DHT22;4820;50.870;4.702;2023-07-31T07:37:14;17.90;99.90
9564;DHT22;4820;50.870;4.702;2023-07-31T07:39:40;17.90;99.90
9564;DHT22;4820;50.870;4.702;2023-07-31T07:42:06;18.00;99.90
9564;DHT22;4820;50.870;4.702;2023-07-31T07:44:31;18.00;99.90
9564;DHT22;4820;50.870;4.702;2023-07-31T07:46:57;18.00;99.90
9564;DHT22;4820;50.870;4.702;2023-07-31T07:49:23;18.00;99.90
9564;DHT22;4820;50.870;4.702;2023-07-31T07:51:49;17.90;99.90
9564;DHT22;4820;50.870;4.702;2023-07-31T07:54:15;17.90;99.90
9564;DHT22;4820;50.870;4.702;2023-07-31T07:56:43;17.90;99.90
9564;DHT22;4820;50.870;4.702;2023-07-31T07:59:09;18.00;99.90
9564;DHT22;4820;50.870;4.702;2023-07-31T08:01:34;18.00;99.90
9564;DHT22;4820;50.870;4.702;2023-07-31T08:04:00;18.00;99.90
9564;DHT22;4820;50.870;4.702;2023-07-31T08:06:26;17.90;99.90
9564;DHT22;4820;50.870;4.702;2023-07-31T08:08:51;17.90;99.90
9564;DHT22;4820;50.870;4.702;2023-07-31T08:11:17;18.00;99.90
9564;DHT22;4820;50.870;4.702;2023-07-31T08:13:43;18.00;99.90
9564;DHT22;4820;50.870;4.702;2023-07-31T08:16:09;18.00;99.90
9564;DHT22;4820;50.870;4.702;2023-07-31T08:18:35;18.00;99.90
9564;DHT22;4820;50.870;4.702;2023-07-31T08:21:04;18.00;99.90
9564;DHT22;4820;50.870;4.702;2023-07-31T08:23:30;18.00;99.90
9564;DHT22;4820;50.870;4.702;2023-07-31T08:25:55;18.10;99.90
9564;DHT22;4820;50.870;4.702;2023-07-31T08:28:21;18.20;99.90
9564;DHT22;4820;50.870;4.702;2023-07-31T08:30:47;18.30;99.90
9564;DHT22;4820;50.870;4.702;2023-07-31T08:33:12;18.30;99.90
9564;DHT22;4820;50.870;4.702;2023-07-31T08:35:39;18.20;99.90
9564;DHT22;4820;50.870;4.702;2023-07-31T08:38:05;18.20;99.90
9564;DHT22;4820;50.870;4.702;2023-07-31T08:40:30;18.20;99.90
9564;DHT22;4820;50.870;4.702;2023-07-31T08:42:56;18.20;99.90
9564;DHT22;4820;50.870;4.702;2023-07-31T08:45:24;18.30;99.90
9564;DHT22;4820;50.870;4.702;2023-07-31T08:47:51;18.30;99.90
9564;DHT22;4820;50.870;4.702;2023-07-31T08:50:21;18.30;99.90
9564;DHT22;4820;50.870;4.702;2023-07-31T08:52:48;18.30;99.90
9564;DHT22;4820;50.870;4.702;2023-07-31T08:55:15;18.30;99.90
9564;DHT22;4820;50.870;4.702;2023-07-31T08:57:42;18.30;99.90
9564;DHT22;4820;50.870;4.702;2023-07-31T09:00:09;18.20;99.90
9564;DHT22;4820;50.870;4.702;2023-07-31T09:02:46;18.20;99.90
9564;DHT22;4820;50.870;4.702;2023-07-31T09:05:12;18.20;99.90
9564;DHT22;4820;50.870;4.702;2023-07-31T09:07:38;18.10;99.90
9564;DHT22;4820;50.870;4.702;2023-07-31T09:10:05;18.10;99.90
9564;DHT22;4820;50.870;4.702;2023-07-31T09:12:31;18.10;99.90
9564;DHT22;4820;50.870;4.702;2023-07-31T09:14:58;18.10;99.90
9564;DHT22;4820;50.870;4.702;2023-07-31T09:17:31;18.10;99.90
9564;DHT22;4820;50.870;4.702;2023-07-31T09:19:57;18.10;99.90
9564;DHT22;4820;50.870;4.702;2023-07-31T09:22:34;18.10;99.90
9564;DHT22;4820;50.870;4.702;2023-07-31T09:25:19;18.10;99.90
9564;DHT22;4820;50.870;4.702;2023-07-31T09:30:20;18.00;99.90
9564;DHT22;4820;50.870;4.702;2023-07-31T09:32:46;18.00;99.90
9564;DHT22;4820;50.870;4.702;2023-07-31T09:35:33;18.00;99.90
9564;DHT22;4820;50.870;4.702;2023-07-31T09:38:10;18.10;99.90
9564;DHT22;4820;50.870;4.702;2023-07-31T09:40:37;18.20;99.90
9564;DHT22;4820;50.870;4.702;2023-07-31T09:43:05;18.30;99.90
9564;DHT22;4820;50.870;4.702;2023-07-31T09:45:35;18.40;99.90
9564;DHT22;4820;50.870;4.702;2023-07-31T09:48:17;18.50;99.90
9564;DHT22;4820;50.870;4.702;2023-07-31T09:50:45;18.60;99.90
9564;DHT22;4820;50.870;4.702;2023-07-31T09:53:12;18.60;99.90
9564;DHT22;4820;50.870;4.702;2023-07-31T09:55:39;18.60;99.90
9564;DHT22;4820;50.870;4.702;2023-07-31T09:58:07;18.60;99.90
9564;DHT22;4820;50.870;4.702;2023-07-31T10:00:34;18.60;99.90
9564;DHT22;4820;50.870;4.702;2023-07-31T10:03:02;18.60;99.90
9564;DHT22;4820;50.870;4.702;2023-07-31T10:05:37;18.60;99.90
9564;DHT22;4820;50.870;4.702;2023-07-31T10:08:04;18.50;99.90
9564;DHT22;4820;50.870;4.702;2023-07-31T10:10:32;18.40;99.90
9564;DHT22;4820;50.870;4.702;2023-07-31T10:13:00;18.40;99.90
9564;DHT22;4820;50.870;4.702;2023-07-31T10:15:27;18.40;99.90
9564;DHT22;4820;50.870;4.702;2023-07-31T10:17:54;18.40;99.90
9564;DHT22;4820;50.870;4.702;2023-07-31T10:20:21;18.50;99.90
9564;DHT22;4820;50.870;4.702;2023-07-31T10:22:48;18.60;99.90
9564;DHT22;4820;50.870;4.702;2023-07-31T10:25:15;18.50;99.90
9564;DHT22;4820;50.870;4.702;2023-07-31T10:27:42;18.40;99.90
9564;DHT22;4820;50.870;4.702;2023-07-31T10:30:10;18.40;99.90
9564;DHT22;4820;50.870;4.702;2023-07-31T10:32:38;18.50;99.90
9564;DHT22;4820;50.870;4.702;2023-07-31T10:35:07;18.60;99.90
9564;DHT22;4820;50.870;4.702;2023-07-31T10:40:05;18.90;99.90
9564;DHT22;4820;50.870;4.702;2023-07-31T10:42:33;19.00;99.90
9564;DHT22;4820;50.870;4.702;2023-07-31T10:45:02;19.20;99.90
9564;DHT22;4820;50.870;4.702;2023-07-31T10:47:28;19.20;99.90
9564;DHT22;4820;50.870;4.702;2023-07-31T10:50:21;19.20;99.90
9564;DHT22;4820;50.870;4.702;2023-07-31T10:52:51;19.30;99.90
9564;DHT22;4820;50.870;4.702;2023-07-31T10:57:56;19.30;99.90
9564;DHT22;4820;50.870;4.702;2023-07-31T11:00:25;19.30;99.90
9564;DHT22;4820;50.870;4.702;2023-07-31T11:03:05;19.20;99.90
9564;DHT22;4820;50.870;4.702;2023-07-31T11:05:51;19.20;99.90
9564;DHT22;4820;50.870;4.702;2023-07-31T11:08:20;19.30;99.90
9564;DHT22;4820;50.870;4.702;2023-07-31T11:10:49;19.30;99.90
9564;DHT22;4820;50.870;4.702;2023-07-31T11:13:15;19.30;99.90
9564;DHT22;4820;50.870;4.702;2023-07-31T11:15:41;19.40;99.90
9564;DHT22;4820;50.870;4.702;2023-07-31T11:18:06;19.50;99.90
9564;DHT22;4820;50.870;4.702;2023-07-31T11:20:35;19.60;99.90
9564;DHT22;4820;50.870;4.702;2023-07-31T11:23:07;19.60;99.90
9564;DHT22;4820;50.870;4.702;2023-07-31T11:25:33;19.70;99.90
9564;DHT22;4820;50.870;4.702;2023-07-31T11:28:03;19.80;99.90
9564;DHT22;4820;50.870;4.702;2023-07-31T11:30:29;19.90;99.90
9564;DHT22;4820;50.870;4.702;2023-07-31T11:32:55;19.90;99.90
9564;DHT22;4820;50.870;4.702;2023-07-31T11:35:21;20.00;99.90
9564;DHT22;4820;50.870;4.702;2023-07-31T11:37:47;20.00;99.90
9564;DHT22;4820;50.870;4.702;2023-07-31T11:40:14;20.10;99.90
9564;DHT22;4820;50.870;4.702;2023-07-31T11:42:40;20.10;99.90
9564;DHT22;4820;50.870;4.702;2023-07-31T11:45:07;20.20;99.90
9564;DHT22;4820;50.870;4.702;2023-07-31T11:47:36;20.30;99.90
9564;DHT22;4820;50.870;4.702;2023-07-31T11:50:04;20.30;99.90
9564;DHT22;4820;50.870;4.702;2023-07-31T11:52:34;20.40;99.90
9564;DHT22;4820;50.870;4.702;2023-07-31T11:55:01;20.40;99.90
9564;DHT22;4820;50.870;4.702;2023-07-31T11:57:27;20.30;99.90
9564;DHT22;4820;50.870;4.702;2023-07-31T11:59:54;20.30;99.90
9564;DHT22;4820;50.870;4.702;2023-07-31T12:02:20;20.30;99.90
9564;DHT22;4820;50.870;4.702;2023-07-31T12:04:47;20.40;99.90
9564;DHT22;4820;50.870;4.702;2023-07-31T12:07:13;20.40;99.90
9564;DHT22;4820;50.870;4.702;2023-07-31T12:09:50;20.40;99.90
9564;DHT22;4820;50.870;4.702;2023-07-31T12:12:22;20.40;99.90
9564;DHT22;4820;50.870;4.702;2023-07-31T12:14:49;20.40;99.90
9564;DHT22;4820;50.870;4.702;2023-07-31T12:17:16;20.40;99.90
9564;DHT22;4820;50.870;4.702;2023-07-31T12:19:42;20.50;99.90
9564;DHT22;4820;50.870;4.702;2023-07-31T12:22:15;20.50;99.90
9564;DHT22;4820;50.870;4.702;2023-07-31T12:24:44;20.60;99.90
9564;DHT22;4820;50.870;4.702;2023-07-31T12:27:14;20.70;99.90
9564;DHT22;4820;50.870;4.702;2023-07-31T12:29:43;20.90;99.90
9564;DHT22;4820;50.870;4.702;2023-07-31T12:32:23;20.90;99.90
9564;DHT22;4820;50.870;4.702;2023-07-31T12:34:54;20.80;99.90
9564;DHT22;4820;50.870;4.702;2023-07-31T12:37:21;20.70;99.90
9564;DHT22;4820;50.870;4.702;2023-07-31T12:39:48;20.70;99.90
9564;DHT22;4820;50.870;4.702;2023-07-31T12:42:13;20.60;99.90
9564;DHT22;4820;50.870;4.702;2023-07-31T12:44:39;20.70;99.90
9564;DHT22;4820;50.870;4.702;2023-07-31T12:47:05;20.60;99.90
9564;DHT22;4820;50.870;4.702;2023-07-31T12:49:31;20.70;99.90
9564;DHT22;4820;50.870;4.702;2023-07-31T12:51:56;20.60;99.90
9564;DHT22;4820;50.870;4.702;2023-07-31T12:54:22;20.70;99.90
9564;DHT22;4820;50.870;4.702;2023-07-31T12:56:48;20.80;99.90
9564;DHT22;4820;50.870;4.702;2023-07-31T12:59:14;20.70;99.90
9564;DHT22;4820;50.870;4.702;2023-07-31T13:01:39;20.70;99.90
9564;DHT22;4820;50.870;4.702;2023-07-31T13:04:05;20.70;99.90
9564;DHT22;4820;50.870;4.702;2023-07-31T13:06:31;20.70;99.90
9564;DHT22;4820;50.870;4.702;2023-07-31T13:08:56;20.60;99.90
9564;DHT22;4820;50.870;4.702;2023-07-31T13:11:22;20.50;99.90
9564;DHT22;4820;50.870;4.702;2023-07-31T13:13:48;20.40;99.90
9564;DHT22;4820;50.870;4.702;2023-07-31T13:16:13;20.30;99.90
9564;DHT22;4820;50.870;4.702;2023-07-31T13:18:39;20.30;99.90
9564;DHT22;4820;50.870;4.702;2023-07-31T13:21:04;20.30;99.90
9564;DHT22;4820;50.870;4.702;2023-07-31T13:23:30;20.20;99.90
9564;DHT22;4820;50.870;4.702;2023-07-31T13:25:56;20.10;99.90
9564;DHT22;4820;50.870;4.702;2023-07-31T13:28:21;20.10;99.90
9564;DHT22;4820;50.870;4.702;2023-07-31T13:30:47;20.00;99.90
9564;DHT22;4820;50.870;4.702;2023-07-31T13:33:13;20.00;99.90
9564;DHT22;4820;50.870;4.702;2023-07-31T13:35:38;19.90;99.90
9564;DHT22;4820;50.870;4.702;2023-07-31T13:38:04;19.80;99.90
9564;DHT22;4820;50.870;4.702;2023-07-31T13:40:31;19.70;99.90
9564;DHT22;4820;50.870;4.702;2023-07-31T13:42:57;19.60;99.90
9564;DHT22;4820;50.870;4.702;2023-07-31T13:45:23;19.50;99.90
9564;DHT22;4820;50.870;4.702;2023-07-31T13:47:50;19.30;99.90
9564;DHT22;4820;50.870;4.702;2023-07-31T13:50:16;19.30;99.90
9564;DHT22;4820;50.870;4.702;2023-07-31T13:52:44;19.20;99.90
9564;DHT22;4820;50.870;4.702;2023-07-31T13:55:10;19.10;99.90
9564;DHT22;4820;50.870;4.702;2023-07-31T13:57:35;19.00;99.90
9564;DHT22;4820;50.870;4.702;2023-07-31T14:00:01;19.00;99.90
9564;DHT22;4820;50.870;4.702;2023-07-31T14:02:27;18.90;99.90
9564;DHT22;4820;50.870;4.702;2023-07-31T14:04:53;18.90;99.90
9564;DHT22;4820;50.870;4.702;2023-07-31T14:07:19;18.90;99.90
9564;DHT22;4820;50.870;4.702;2023-07-31T14:09:44;18.90;99.90
9564;DHT22;4820;50.870;4.702;2023-07-31T14:12:10;18.80;99.90
9564;DHT22;4820;50.870;4.702;2023-07-31T14:14:36;18.80;99.90
9564;DHT22;4820;50.870;4.702;2023-07-31T14:17:02;18.80;99.90
9564;DHT22;4820;50.870;4.702;2023-07-31T14:19:28;18.70;99.90
9564;DHT22;4820;50.870;4.702;2023-07-31T14:21:53;18.70;99.90
9564;DHT22;4820;50.870;4.702;2023-07-31T14:24:20;18.80;99.90
9564;DHT22;4820;50.870;4.702;2023-07-31T14:26:46;18.80;99.90
9564;DHT22;4820;50.870;4.702;2023-07-31T14:29:11;18.70;99.90
9564;DHT22;4820;50.870;4.702;2023-07-31T14:31:37;18.70;99.90
9564;DHT22;4820;50.870;4.702;2023-07-31T14:34:03;18.70;99.90
9564;DHT22;4820;50.870;4.702;2023-07-31T14:36:28;18.60;99.90
9564;DHT22;4820;50.870;4.702;2023-07-31T14:38:54;18.60;99.90
9564;DHT22;4820;50.870;4.702;2023-07-31T14:41:20;18.60;99.90
9564;DHT22;4820;50.870;4.702;2023-07-31T14:43:46;18.70;99.90
9564;DHT22;4820;50.870;4.702;2023-07-31T14:46:12;18.60;99.90
9564;DHT22;4820;50.870;4.702;2023-07-31T14:48:37;18.70;99.90
9564;DHT22;4820;50.870;4.702;2023-07-31T14:51:04;18.60;99.90
9564;DHT22;4820;50.870;4.702;2023-07-31T14:53:29;18.60;99.90
9564;DHT22;4820;50.870;4.702;2023-07-31T14:55:55;18.60;99.90
9564;DHT22;4820;50.870;4.702;2023-07-31T14:58:21;18.60;99.90
9564;DHT22;4820;50.870;4.702;2023-07-31T15:00:48;18.60;99.90
9564;DHT22;4820;50.870;4.702;2023-07-31T15:03:13;18.60;99.90
9564;DHT22;4820;50.870;4.702;2023-07-31T15:05:39;18.60;99.90
9564;DHT22;4820;50.870;4.702;2023-07-31T15:08:05;18.50;99.90
9564;DHT22;4820;50.870;4.702;2023-07-31T15:10:31;18.50;99.90
9564;DHT22;4820;50.870;4.702;2023-07-31T15:12:56;18.40;99.90
9564;DHT22;4820;50.870;4.702;2023-07-31T15:15:22;18.40;99.90
9564;DHT22;4820;50.870;4.702;2023-07-31T15:17:49;18.30;99.90
9564;DHT22;4820;50.870;4.702;2023-07-31T15:20:14;18.30;99.90
9564;DHT22;4820;50.870;4.702;2023-07-31T15:22:40;18.30;99.90
9564;DHT22;4820;50.870;4.702;2023-07-31T15:25:06;18.30;99.90
9564;DHT22;4820;50.870;4.702;2023-07-31T15:27:32;18.30;99.90
9564;DHT22;4820;50.870;4.702;2023-07-31T15:29:58;18.30;99.90
9564;DHT22;4820;50.870;4.702;2023-07-31T15:32:23;18.30;99.90
9564;DHT22;4820;50.870;4.702;2023-07-31T15:34:49;18.20;99.90
9564;DHT22;4820;50.870;4.702;2023-07-31T15:37:15;18.20;99.90
9564;DHT22;4820;50.870;4.702;2023-07-31T15:39:42;18.20;99.90
9564;DHT22;4820;50.870;4.702;2023-07-31T15:42:08;18.20;99.90
9564;DHT22;4820;50.870;4.702;2023-07-31T15:44:34;18.20;99.90
9564;DHT22;4820;50.870;4.702;2023-07-31T15:47:00;18.20;99.90
9564;DHT22;4820;50.870;4.702;2023-07-31T15:49:26;18.10;99.90
9564;DHT22;4820;50.870;4.702;2023-07-31T15:51:53;18.20;99.90
9564;DHT22;4820;50.870;4.702;2023-07-31T15:54:19;18.20;99.90
9564;DHT22;4820;50.870;4.702;2023-07-31T15:56:45;18.20;99.90
9564;DHT22;4820;50.870;4.702;2023-07-31T15:59:10;18.20;99.90
9564;DHT22;4820;50.870;4.702;2023-07-31T16:01:36;18.20;99.90
9564;DHT22;4820;50.870;4.702;2023-07-31T16:04:02;18.30;99.90
9564;DHT22;4820;50.870;4.702;2023-07-31T16:06:28;18.30;99.90
9564;DHT22;4820;50.870;4.702;2023-07-31T16:08:53;18.30;99.90
9564;DHT22;4820;50.870;4.702;2023-07-31T16:11:20;18.20;99.90